sensor_id;sensor_type;location;lat;lon;timestamp;pressure;altitude;pressure_sealevel;temperature
24714;BMP280;12820;51.580;5.010;2022-12-18T00:04:38;102863.84;;;-0.19
24714;BMP280;12820;51.580;5.010;2022-12-18T00:09:40;102861.88;;;-0.25
24714;BMP280;12820;51.580;5.010;2022-12-18T00:14:43;102856.38;;;-0.34
24714;BMP280;12820;51.580;5.010;2022-12-18T00:19:45;102848.59;;;-0.39
24714;BMP280;12820;51.580;5.010;2022-12-18T00:24:47;102839.09;;;-0.46
24714;BMP280;12820;51.580;5.010;2022-12-18T00:29:49;102839.53;;;-0.53
24714;BMP280;12820;51.580;5.010;2022-12-18T00:34:51;102822.72;;;-0.58
24714;BMP280;12820;51.580;5.010;2022-12-18T00:39:53;102829.00;;;-0.63
24714;BMP280;12820;51.580;5.010;2022-12-18T00:44:55;102834.41;;;-0.69
24714;BMP280;12820;51.580;5.010;2022-12-18T00:49:57;102823.41;;;-0.73
24714;BMP280;12820;51.580;5.010;2022-12-18T00:54:59;102822.25;;;-0.78
24714;BMP280;12820;51.580;5.010;2022-12-18T01:00:10;102820.38;;;-0.82
24714;BMP280;12820;51.580;5.010;2022-12-18T01:05:14;102829.97;;;-0.87
24714;BMP280;12820;51.580;5.010;2022-12-18T01:10:17;102839.56;;;-0.91
24714;BMP280;12820;51.580;5.010;2022-12-18T01:15:20;102845.13;;;-0.93
24714;BMP280;12820;51.580;5.010;2022-12-18T01:20:22;102845.81;;;-0.96
24714;BMP280;12820;51.580;5.010;2022-12-18T01:25:24;102832.53;;;-0.98
24714;BMP280;12820;51.580;5.010;2022-12-18T01:30:27;102830.63;;;-1.02
24714;BMP280;12820;51.580;5.010;2022-12-18T01:35:29;102832.13;;;-1.04
24714;BMP280;12820;51.580;5.010;2022-12-18T01:40:31;102836.91;;;-1.07
24714;BMP280;12820;51.580;5.010;2022-12-18T01:45:33;102821.91;;;-1.09
24714;BMP280;12820;51.580;5.010;2022-12-18T01:55:51;102823.78;;;-1.18
24714;BMP280;12820;51.580;5.010;2022-12-18T02:00:55;102826.06;;;-1.21
24714;BMP280;12820;51.580;5.010;2022-12-18T02:11:16;102833.00;;;-1.28
24714;BMP280;12820;51.580;5.010;2022-12-18T02:16:29;102828.72;;;-1.31
24714;BMP280;12820;51.580;5.010;2022-12-18T02:21:45;102816.94;;;-1.35
24714;BMP280;12820;51.580;5.010;2022-12-18T02:26:55;102816.78;;;-1.38
24714;BMP280;12820;51.580;5.010;2022-12-18T02:32:03;102805.84;;;-1.41
24714;BMP280;12820;51.580;5.010;2022-12-18T02:37:12;102811.44;;;-1.43
24714;BMP280;12820;51.580;5.010;2022-12-18T02:42:16;102814.66;;;-1.44
24714;BMP280;12820;51.580;5.010;2022-12-18T02:47:22;102795.56;;;-1.47
24714;BMP280;12820;51.580;5.010;2022-12-18T02:57:49;102787.91;;;-1.51
24714;BMP280;12820;51.580;5.010;2022-12-18T03:02:59;102779.47;;;-1.55
24714;BMP280;12820;51.580;5.010;2022-12-18T03:08:16;102772.75;;;-1.57
24714;BMP280;12820;51.580;5.010;2022-12-18T03:13:32;102771.78;;;-1.59
24714;BMP280;12820;51.580;5.010;2022-12-18T03:18:40;102772.34;;;-1.63
24714;BMP280;12820;51.580;5.010;2022-12-18T03:23:47;102783.72;;;-1.65
24714;BMP280;12820;51.580;5.010;2022-12-18T03:28:53;102788.44;;;-1.68
24714;BMP280;12820;51.580;5.010;2022-12-18T03:34:06;102779.16;;;-1.72
24714;BMP280;12820;51.580;5.010;2022-12-18T03:39:17;102773.94;;;-1.76
24714;BMP280;12820;51.580;5.010;2022-12-18T03:44:31;102753.16;;;-1.79
24714;BMP280;12820;51.580;5.010;2022-12-18T03:54:55;102739.69;;;-1.84
24714;BMP280;12820;51.580;5.010;2022-12-18T04:00:13;102743.69;;;-1.86
24714;BMP280;12820;51.580;5.010;2022-12-18T04:05:25;102727.81;;;-1.90
24714;BMP280;12820;51.580;5.010;2022-12-18T04:10:29;102721.97;;;-1.92
24714;BMP280;12820;51.580;5.010;2022-12-18T04:15:36;102733.44;;;-1.92
24714;BMP280;12820;51.580;5.010;2022-12-18T04:20:42;102735.78;;;-1.94
24714;BMP280;12820;51.580;5.010;2022-12-18T04:25:46;102740.63;;;-1.95
24714;BMP280;12820;51.580;5.010;2022-12-18T04:30:55;102757.88;;;-1.95
24714;BMP280;12820;51.580;5.010;2022-12-18T04:35:57;102759.50;;;-1.95
24714;BMP280;12820;51.580;5.010;2022-12-18T04:41:00;102761.84;;;-1.97
24714;BMP280;12820;51.580;5.010;2022-12-18T04:46:08;102757.59;;;-1.99
24714;BMP280;12820;51.580;5.010;2022-12-18T04:51:10;102759.09;;;-2.01
24714;BMP280;12820;51.580;5.010;2022-12-18T04:56:15;102755.66;;;-2.03
24714;BMP280;12820;51.580;5.010;2022-12-18T05:01:17;102751.50;;;-2.04
24714;BMP280;12820;51.580;5.010;2022-12-18T05:06:20;102759.53;;;-2.07
24714;BMP280;12820;51.580;5.010;2022-12-18T05:11:22;102769.22;;;-2.10
24714;BMP280;12820;51.580;5.010;2022-12-18T05:16:24;102767.50;;;-2.11
24714;BMP280;12820;51.580;5.010;2022-12-18T05:21:26;102765.78;;;-2.12
24714;BMP280;12820;51.580;5.010;2022-12-18T05:26:29;102762.38;;;-2.13
24714;BMP280;12820;51.580;5.010;2022-12-18T05:31:31;102759.91;;;-2.13
24714;BMP280;12820;51.580;5.010;2022-12-18T05:36:40;102761.41;;;-2.15
24714;BMP280;12820;51.580;5.010;2022-12-18T05:41:42;102743.31;;;-2.16
24714;BMP280;12820;51.580;5.010;2022-12-18T05:46:45;102741.69;;;-2.15
24714;BMP280;12820;51.580;5.010;2022-12-18T05:51:47;102744.16;;;-2.15
24714;BMP280;12820;51.580;5.010;2022-12-18T05:56:49;102742.56;;;-2.15
24714;BMP280;12820;51.580;5.010;2022-12-18T06:01:51;102754.88;;;-2.15
24714;BMP280;12820;51.580;5.010;2022-12-18T06:06:53;102753.28;;;-2.14
24714;BMP280;12820;51.580;5.010;2022-12-18T06:11:55;102739.25;;;-2.15
24714;BMP280;12820;51.580;5.010;2022-12-18T06:16:58;102739.25;;;-2.15
24714;BMP280;12820;51.580;5.010;2022-12-18T06:22:00;102744.16;;;-2.15
24714;BMP280;12820;51.580;5.010;2022-12-18T06:27:02;102728.41;;;-2.17
24714;BMP280;12820;51.580;5.010;2022-12-18T06:32:04;102730.13;;;-2.16
24714;BMP280;12820;51.580;5.010;2022-12-18T06:37:06;102708.72;;;-2.17
24714;BMP280;12820;51.580;5.010;2022-12-18T06:42:08;102702.13;;;-2.18
24714;BMP280;12820;51.580;5.010;2022-12-18T06:47:10;102703.72;;;-2.19
24714;BMP280;12820;51.580;5.010;2022-12-18T06:52:12;102705.31;;;-2.19
24714;BMP280;12820;51.580;5.010;2022-12-18T06:57:19;102696.22;;;-2.20
24714;BMP280;12820;51.580;5.010;2022-12-18T07:02:21;102704.34;;;-2.21
24714;BMP280;12820;51.580;5.010;2022-12-18T07:07:24;102687.88;;;-2.22
24714;BMP280;12820;51.580;5.010;2022-12-18T07:12:27;102675.56;;;-2.22
24714;BMP280;12820;51.580;5.010;2022-12-18T07:17:29;102659.91;;;-2.23
24714;BMP280;12820;51.580;5.010;2022-12-18T07:22:31;102655.78;;;-2.24
24714;BMP280;12820;51.580;5.010;2022-12-18T07:27:33;102645.94;;;-2.24
24714;BMP280;12820;51.580;5.010;2022-12-18T07:32:35;102637.88;;;-2.21
24714;BMP280;12820;51.580;5.010;2022-12-18T07:37:37;102624.06;;;-2.19
24714;BMP280;12820;51.580;5.010;2022-12-18T07:42:39;102622.53;;;-2.17
24714;BMP280;12820;51.580;5.010;2022-12-18T07:47:41;102609.47;;;-2.16
24714;BMP280;12820;51.580;5.010;2022-12-18T07:52:43;102616.09;;;-2.15
24714;BMP280;12820;51.580;5.010;2022-12-18T07:57:45;102630.19;;;-2.13
24714;BMP280;12820;51.580;5.010;2022-12-18T08:02:55;102632.94;;;-2.09
24714;BMP280;12820;51.580;5.010;2022-12-18T08:07:58;102626.53;;;-2.07
24714;BMP280;12820;51.580;5.010;2022-12-18T08:13:00;102622.72;;;-2.02
24714;BMP280;12820;51.580;5.010;2022-12-18T08:18:06;102624.56;;;-1.99
24714;BMP280;12820;51.580;5.010;2022-12-18T08:23:15;102618.31;;;-1.95
24714;BMP280;12820;51.580;5.010;2022-12-18T08:28:17;102625.97;;;-1.90
24714;BMP280;12820;51.580;5.010;2022-12-18T08:33:19;102618.94;;;-1.84
24714;BMP280;12820;51.580;5.010;2022-12-18T08:38:21;102603.78;;;-1.77
24714;BMP280;12820;51.580;5.010;2022-12-18T08:43:24;102601.69;;;-1.72
24714;BMP280;12820;51.580;5.010;2022-12-18T08:48:45;102600.72;;;-1.61
24714;BMP280;12820;51.580;5.010;2022-12-18T08:53:47;102604.31;;;-1.56
24714;BMP280;12820;51.580;5.010;2022-12-18T08:58:53;102632.94;;;-1.45
24714;BMP280;12820;51.580;5.010;2022-12-18T09:03:55;102632.75;;;-1.36
24714;BMP280;12820;51.580;5.010;2022-12-18T09:08:58;102624.38;;;-1.25
24714;BMP280;12820;51.580;5.010;2022-12-18T09:14:01;102622.56;;;-1.15
24714;BMP280;12820;51.580;5.010;2022-12-18T09:19:04;102603.44;;;-1.05
24714;BMP280;12820;51.580;5.010;2022-12-18T09:24:12;102614.13;;;-0.91
24714;BMP280;12820;51.580;5.010;2022-12-18T09:29:15;102604.09;;;-0.80
24714;BMP280;12820;51.580;5.010;2022-12-18T09:34:20;102590.75;;;-0.70
24714;BMP280;12820;51.580;5.010;2022-12-18T09:39:23;102589.91;;;-0.56
24714;BMP280;12820;51.580;5.010;2022-12-18T09:44:41;102586.59;;;-0.42
24714;BMP280;12820;51.580;5.010;2022-12-18T09:49:52;102581.66;;;-0.28
24714;BMP280;12820;51.580;5.010;2022-12-18T09:55:09;102594.84;;;-0.14
24714;BMP280;12820;51.580;5.010;2022-12-18T10:00:21;102593.16;;;-0.00
24714;BMP280;12820;51.580;5.010;2022-12-18T10:05:36;102582.53;;;0.16
24714;BMP280;12820;51.580;5.010;2022-12-18T10:10:46;102586.59;;;0.30
24714;BMP280;12820;51.580;5.010;2022-12-18T10:22:00;102548.78;;;0.62
24714;BMP280;12820;51.580;5.010;2022-12-18T10:27:22;102532.84;;;0.72
24714;BMP280;12820;51.580;5.010;2022-12-18T10:32:27;102522.03;;;0.86
24714;BMP280;12820;51.580;5.010;2022-12-18T10:37:29;102507.66;;;0.95
24714;BMP280;12820;51.580;5.010;2022-12-18T10:42:31;102509.94;;;1.07
24714;BMP280;12820;51.580;5.010;2022-12-18T10:47:34;102509.53;;;1.16
24714;BMP280;12820;51.580;5.010;2022-12-18T10:52:36;102504.16;;;1.24
24714;BMP280;12820;51.580;5.010;2022-12-18T10:57:44;102511.13;;;1.31
24714;BMP280;12820;51.580;5.010;2022-12-18T11:02:46;102502.44;;;1.39
24714;BMP280;12820;51.580;5.010;2022-12-18T11:07:49;102496.28;;;1.48
24714;BMP280;12820;51.580;5.010;2022-12-18T11:12:52;102493.41;;;1.56
24714;BMP280;12820;51.580;5.010;2022-12-18T11:17:54;102481.44;;;1.65
24714;BMP280;12820;51.580;5.010;2022-12-18T11:22:59;102476.97;;;1.75
24714;BMP280;12820;51.580;5.010;2022-12-18T11:28:05;102475.91;;;1.87
24714;BMP280;12820;51.580;5.010;2022-12-18T11:33:26;102471.44;;;1.97
24714;BMP280;12820;51.580;5.010;2022-12-18T11:38:37;102474.41;;;2.08
24714;BMP280;12820;51.580;5.010;2022-12-18T11:43:48;102461.53;;;2.16
24714;BMP280;12820;51.580;5.010;2022-12-18T11:49:28;102463.66;;;2.26
24714;BMP280;12820;51.580;5.010;2022-12-18T11:54:34;102450.59;;;2.30
24714;BMP280;12820;51.580;5.010;2022-12-18T12:05:20;102433.81;;;2.43
24714;BMP280;12820;51.580;5.010;2022-12-18T12:16:22;102414.75;;;2.60
24714;BMP280;12820;51.580;5.010;2022-12-18T12:22:10;102395.13;;;2.66
24714;BMP280;12820;51.580;5.010;2022-12-18T12:38:24;102369.78;;;2.73
24714;BMP280;12820;51.580;5.010;2022-12-18T12:43:46;102364.03;;;2.74
24714;BMP280;12820;51.580;5.010;2022-12-18T12:48:55;102366.50;;;2.74
24714;BMP280;12820;51.580;5.010;2022-12-18T12:54:00;102363.94;;;2.72
24714;BMP280;12820;51.580;5.010;2022-12-18T13:04:36;102356.31;;;2.68
24714;BMP280;12820;51.580;5.010;2022-12-18T13:15:40;102351.28;;;2.66
24714;BMP280;12820;51.580;5.010;2022-12-18T13:36:43;102330.56;;;2.66
24714;BMP280;12820;51.580;5.010;2022-12-18T13:41:47;102325.63;;;2.66
24714;BMP280;12820;51.580;5.010;2022-12-18T13:46:50;102305.75;;;2.66
24714;BMP280;12820;51.580;5.010;2022-12-18T13:51:55;102309.09;;;2.66
24714;BMP280;12820;51.580;5.010;2022-12-18T13:56:58;102298.38;;;2.67
24714;BMP280;12820;51.580;5.010;2022-12-18T14:02:11;102301.66;;;2.66
24714;BMP280;12820;51.580;5.010;2022-12-18T14:07:18;102294.16;;;2.65
24714;BMP280;12820;51.580;5.010;2022-12-18T14:12:24;102300.69;;;2.63
24714;BMP280;12820;51.580;5.010;2022-12-18T14:17:46;102282.41;;;2.61
24714;BMP280;12820;51.580;5.010;2022-12-18T14:22:49;102301.44;;;2.61
24714;BMP280;12820;51.580;5.010;2022-12-18T14:27:59;102302.13;;;2.58
24714;BMP280;12820;51.580;5.010;2022-12-18T14:43:18;102285.38;;;2.53
24714;BMP280;12820;51.580;5.010;2022-12-18T14:48:41;102287.78;;;2.51
24714;BMP280;12820;51.580;5.010;2022-12-18T14:54:02;102275.34;;;2.50
24714;BMP280;12820;51.580;5.010;2022-12-18T14:59:13;102257.00;;;2.47
24714;BMP280;12820;51.580;5.010;2022-12-18T15:04:36;102258.56;;;2.45
24714;BMP280;12820;51.580;5.010;2022-12-18T15:09:46;102257.59;;;2.41
24714;BMP280;12820;51.580;5.010;2022-12-18T15:15:03;102239.25;;;2.38
24714;BMP280;12820;51.580;5.010;2022-12-18T15:20:09;102237.50;;;2.35
24714;BMP280;12820;51.580;5.010;2022-12-18T15:25:35;102230.00;;;2.34
24714;BMP280;12820;51.580;5.010;2022-12-18T15:30:38;102219.97;;;2.31
24714;BMP280;12820;51.580;5.010;2022-12-18T15:35:40;102214.16;;;2.30
24714;BMP280;12820;51.580;5.010;2022-12-18T15:40:48;102212.38;;;2.28
24714;BMP280;12820;51.580;5.010;2022-12-18T15:45:50;102208.22;;;2.27
24714;BMP280;12820;51.580;5.010;2022-12-18T15:50:54;102218.16;;;2.27
24714;BMP280;12820;51.580;5.010;2022-12-18T15:55:58;102216.44;;;2.26
24714;BMP280;12820;51.580;5.010;2022-12-18T16:01:20;102207.22;;;2.24
24714;BMP280;12820;51.580;5.010;2022-12-18T16:06:24;102192.34;;;2.24
24714;BMP280;12820;51.580;5.010;2022-12-18T16:11:28;102184.13;;;2.25
24714;BMP280;12820;51.580;5.010;2022-12-18T16:16:40;102182.50;;;2.25
24714;BMP280;12820;51.580;5.010;2022-12-18T16:21:42;102176.69;;;2.25
24714;BMP280;12820;51.580;5.010;2022-12-18T16:26:44;102176.75;;;2.26
24714;BMP280;12820;51.580;5.010;2022-12-18T16:31:47;102173.50;;;2.27
24714;BMP280;12820;51.580;5.010;2022-12-18T16:36:49;102165.25;;;2.28
24714;BMP280;12820;51.580;5.010;2022-12-18T16:41:52;102160.28;;;2.28
24714;BMP280;12820;51.580;5.010;2022-12-18T16:46:55;102159.56;;;2.30
24714;BMP280;12820;51.580;5.010;2022-12-18T16:52:04;102146.38;;;2.31
24714;BMP280;12820;51.580;5.010;2022-12-18T16:57:09;102148.91;;;2.33
24714;BMP280;12820;51.580;5.010;2022-12-18T17:02:20;102147.34;;;2.35
24714;BMP280;12820;51.580;5.010;2022-12-18T17:07:25;102152.38;;;2.36
24714;BMP280;12820;51.580;5.010;2022-12-18T17:12:29;102150.75;;;2.37
24714;BMP280;12820;51.580;5.010;2022-12-18T17:17:31;102156.59;;;2.39
24714;BMP280;12820;51.580;5.010;2022-12-18T17:22:34;102149.28;;;2.42
24714;BMP280;12820;51.580;5.010;2022-12-18T17:27:36;102141.16;;;2.46
24714;BMP280;12820;51.580;5.010;2022-12-18T17:32:38;102142.88;;;2.47
24714;BMP280;12820;51.580;5.010;2022-12-18T17:37:40;102143.03;;;2.51
24714;BMP280;12820;51.580;5.010;2022-12-18T17:42:42;102154.69;;;2.53
24714;BMP280;12820;51.580;5.010;2022-12-18T17:47:45;102141.63;;;2.57
24714;BMP280;12820;51.580;5.010;2022-12-18T17:52:47;102140.03;;;2.59
24714;BMP280;12820;51.580;5.010;2022-12-18T17:57:49;102141.00;;;2.63
24714;BMP280;12820;51.580;5.010;2022-12-18T18:02:51;102136.09;;;2.64
24714;BMP280;12820;51.580;5.010;2022-12-18T18:07:54;102131.31;;;2.68
24714;BMP280;12820;51.580;5.010;2022-12-18T18:12:56;102132.25;;;2.72
24714;BMP280;12820;51.580;5.010;2022-12-18T18:18:16;102124.94;;;2.75
24714;BMP280;12820;51.580;5.010;2022-12-18T18:23:20;102121.78;;;2.79
24714;BMP280;12820;51.580;5.010;2022-12-18T18:28:25;102111.94;;;2.82
24714;BMP280;12820;51.580;5.010;2022-12-18T18:33:28;102112.94;;;2.86
24714;BMP280;12820;51.580;5.010;2022-12-18T18:38:31;102119.72;;;2.90
24714;BMP280;12820;51.580;5.010;2022-12-18T18:43:33;102129.78;;;2.93
24714;BMP280;12820;51.580;5.010;2022-12-18T18:48:36;102126.59;;;2.97
24714;BMP280;12820;51.580;5.010;2022-12-18T18:53:41;102139.19;;;3.01
24714;BMP280;12820;51.580;5.010;2022-12-18T18:58:43;102138.44;;;3.04
24714;BMP280;12820;51.580;5.010;2022-12-18T19:03:46;102137.78;;;3.08
24714;BMP280;12820;51.580;5.010;2022-12-18T19:08:49;102131.22;;;3.10
24714;BMP280;12820;51.580;5.010;2022-12-18T19:13:52;102134.59;;;3.12
24714;BMP280;12820;51.580;5.010;2022-12-18T19:18:55;102125.53;;;3.14
24714;BMP280;12820;51.580;5.010;2022-12-18T19:24:04;102122.28;;;3.15
24714;BMP280;12820;51.580;5.010;2022-12-18T19:29:07;102109.06;;;3.16
24714;BMP280;12820;51.580;5.010;2022-12-18T19:34:10;102114.03;;;3.16
24714;BMP280;12820;51.580;5.010;2022-12-18T19:39:15;102119.91;;;3.18
24714;BMP280;12820;51.580;5.010;2022-12-18T19:44:17;102126.56;;;3.18
24714;BMP280;12820;51.580;5.010;2022-12-18T19:49:21;102145.63;;;3.19
24714;BMP280;12820;51.580;5.010;2022-12-18T19:54:23;102139.88;;;3.20
24714;BMP280;12820;51.580;5.010;2022-12-18T19:59:27;102133.28;;;3.21
24714;BMP280;12820;51.580;5.010;2022-12-18T20:04:29;102130.00;;;3.22
24714;BMP280;12820;51.580;5.010;2022-12-18T20:09:32;102128.41;;;3.24
24714;BMP280;12820;51.580;5.010;2022-12-18T20:14:35;102124.28;;;3.24
24714;BMP280;12820;51.580;5.010;2022-12-18T20:19:37;102116.91;;;3.26
24714;BMP280;12820;51.580;5.010;2022-12-18T20:24:40;102102.03;;;3.27
24714;BMP280;12820;51.580;5.010;2022-12-18T20:29:42;102096.28;;;3.28
24714;BMP280;12820;51.580;5.010;2022-12-18T20:34:45;102079.78;;;3.30
24714;BMP280;12820;51.580;5.010;2022-12-18T20:39:48;102072.41;;;3.32
24714;BMP280;12820;51.580;5.010;2022-12-18T20:44:52;102068.31;;;3.34
24714;BMP280;12820;51.580;5.010;2022-12-18T20:49:54;102063.41;;;3.35
24714;BMP280;12820;51.580;5.010;2022-12-18T20:54:57;102064.25;;;3.36
24714;BMP280;12820;51.580;5.010;2022-12-18T21:00:01;102065.13;;;3.37
24714;BMP280;12820;51.580;5.010;2022-12-18T21:05:04;102056.09;;;3.39
24714;BMP280;12820;51.580;5.010;2022-12-18T21:10:06;102050.34;;;3.42
24714;BMP280;12820;51.580;5.010;2022-12-18T21:15:09;102052.06;;;3.43
24714;BMP280;12820;51.580;5.010;2022-12-18T21:20:14;102042.25;;;3.46
24714;BMP280;12820;51.580;5.010;2022-12-18T21:25:20;102050.56;;;3.48
24714;BMP280;12820;51.580;5.010;2022-12-18T21:30:22;102036.56;;;3.50
24714;BMP280;12820;51.580;5.010;2022-12-18T21:35:24;102031.63;;;3.51
24714;BMP280;12820;51.580;5.010;2022-12-18T21:40:29;102010.09;;;3.52
24714;BMP280;12820;51.580;5.010;2022-12-18T21:45:31;102000.22;;;3.53
24714;BMP280;12820;51.580;5.010;2022-12-18T21:50:33;101986.16;;;3.54
24714;BMP280;12820;51.580;5.010;2022-12-18T21:55:35;101970.44;;;3.54
24714;BMP280;12820;51.580;5.010;2022-12-18T22:00:37;101983.75;;;3.56
24714;BMP280;12820;51.580;5.010;2022-12-18T22:05:42;101976.41;;;3.59
24714;BMP280;12820;51.580;5.010;2022-12-18T22:11:10;101954.88;;;3.60
24714;BMP280;12820;51.580;5.010;2022-12-18T22:16:13;101949.94;;;3.61
24714;BMP280;12820;51.580;5.010;2022-12-18T22:21:22;101937.56;;;3.63
24714;BMP280;12820;51.580;5.010;2022-12-18T22:26:33;101935.16;;;3.64
24714;BMP280;12820;51.580;5.010;2022-12-18T22:31:41;101924.44;;;3.67
24714;BMP280;12820;51.580;5.010;2022-12-18T22:36:46;101926.97;;;3.68
24714;BMP280;12820;51.580;5.010;2022-12-18T22:41:48;101925.34;;;3.70
24714;BMP280;12820;51.580;5.010;2022-12-18T22:46:52;101928.78;;;3.73
24714;BMP280;12820;51.580;5.010;2022-12-18T22:52:08;101913.91;;;3.75
24714;BMP280;12820;51.580;5.010;2022-12-18T22:57:10;101899.09;;;3.78
24714;BMP280;12820;51.580;5.010;2022-12-18T23:02:14;101878.44;;;3.80
24714;BMP280;12820;51.580;5.010;2022-12-18T23:07:16;101881.03;;;3.83
24714;BMP280;12820;51.580;5.010;2022-12-18T23:12:18;101864.50;;;3.85
24714;BMP280;12820;51.580;5.010;2022-12-18T23:17:20;101868.72;;;3.88
24714;BMP280;12820;51.580;5.010;2022-12-18T23:22:22;101851.38;;;3.90
24714;BMP280;12820;51.580;5.010;2022-12-18T23:27:24;101837.38;;;3.94
24714;BMP280;12820;51.580;5.010;2022-12-18T23:32:26;101820.03;;;3.95
24714;BMP280;12820;51.580;5.010;2022-12-18T23:37:29;101809.34;;;3.98
24714;BMP280;12820;51.580;5.010;2022-12-18T23:42:51;101801.09;;;4.00
24714;BMP280;12820;51.580;5.010;2022-12-18T23:47:53;101802.00;;;4.02
24714;BMP280;12820;51.580;5.010;2022-12-18T23:52:56;101795.50;;;4.07
24714;BMP280;12820;51.580;5.010;2022-12-18T23:58:04;101782.34;;;4.11
